Glen Saint Mary, Florida
Current Conditions -  °F | °C
As of 6:50 AM on Friday 28 Nov 2014 (Local Time) from KVQQ Reporting Station
Clear Clear  
Wind Chill: 28°   Ceiling: Unl
Heat Index: 36°   Visibility: 10mi
Dew Point: 28°   Wind: 12mph
Humidity: 75%   Direction: 10°N
Pressure: 30.35"   Gusts: NA
Location:  30.28°N, 82.16°W
Report Text: KVQQ 281150Z 01010KT 10SM CLR 02/M02 A3035
Loading
Personal Weather Stations






























Interactive Weather Map New forecast layout! Learn more

10-Day Weather Forecast

Advertisements
Track Severe Weather on mobile